Time;durP1;ratioP1;P1;durP2;ratioP2;P2;SDS_P1;SDS_P2;PMS_P1;PMS_P2;Temp;Humidity;BMP_temperature;BMP_pressure;BME280_temperature;BME280_humidity;BME280_pressure;Samples;Min_cycle;Max_cycle;Signal;HPM_P1;HPM_P2
2022/01/12 00:01:49;;;;;;;13.95;2.05;;;;;;;;;;5015616;28;20064;-64
2022/01/12 00:04:20;;;;;;;16.90;1.98;;;;;;;;;;5031314;28;20060;-64
2022/01/12 00:06:51;;;;;;;13.70;1.92;;;;;;;;;;4991833;28;20054;-63
2022/01/12 00:09:21;;;;;;;13.23;2.08;;;;;;;;;;4936770;29;20059;-64
2022/01/12 00:11:51;;;;;;;22.70;2.30;;;;;;;;;;4948988;28;20066;-64
2022/01/12 00:14:22;;;;;;;20.95;2.22;;;;;;;;;;4991827;28;20058;-63
2022/01/12 00:16:58;;;;;;;14.63;2.40;;;;;;;;;;4943807;28;20061;-63
2022/01/12 00:19:29;;;;;;;16.58;2.58;;;;;;;;;;4972231;28;20058;-64
2022/01/12 00:21:59;;;;;;;14.48;2.65;;;;;;;;;;4972415;28;20058;-64
2022/01/12 00:24:51;;;;;;;19.70;2.08;;;;;;;;;;4972003;28;20070;-63
2022/01/12 00:33:13;;;;;;;23.50;2.70;;;;;;;;;;4914428;29;20056;-64
2022/01/12 00:35:47;;;;;;;11.82;2.33;;;;;;;;;;4914633;29;20055;-64
2022/01/12 00:38:21;;;;;;;14.50;2.17;;;;;;;;;;4900715;29;20056;-64
2022/01/12 00:40:54;;;;;;;15.73;2.22;;;;;;;;;;4865094;29;20454;-63
2022/01/12 00:43:30;;;;;;;14.82;2.33;;;;;;;;;;4864591;29;20441;-63
2022/01/12 00:46:01;;;;;;;17.23;2.42;;;;;;;;;;4868121;29;20059;-64
2022/01/12 00:48:36;;;;;;;20.77;2.72;;;;;;;;;;4933243;29;20047;-64
2022/01/12 00:51:08;;;;;;;21.23;2.50;;;;;;;;;;4886166;29;20051;-64
2022/01/12 00:53:39;;;;;;;18.75;2.50;;;;;;;;;;4886321;29;20681;-64
2022/01/12 00:56:10;;;;;;;12.60;2.20;;;;;;;;;;4937355;28;20063;-64
2022/01/12 00:58:41;;;;;;;13.75;2.08;;;;;;;;;;4932965;29;20052;-63
2022/01/12 01:01:12;;;;;;;13.98;2.13;;;;;;;;;;4932791;29;20052;-63
2022/01/12 01:03:42;;;;;;;14.52;2.40;;;;;;;;;;4932875;29;20060;-64
2022/01/12 01:06:13;;;;;;;17.35;2.58;;;;;;;;;;4932998;29;20060;-64
2022/01/12 01:08:50;;;;;;;18.48;2.47;;;;;;;;;;4944794;29;20058;-64
2022/01/12 01:11:26;;;;;;;19.00;2.60;;;;;;;;;;4951694;28;20415;-63
2022/01/12 01:14:09;;;;;;;19.95;3.15;;;;;;;;;;4913697;29;20082;-63
2022/01/12 01:27:40;;;;;;;22.35;3.20;;;;;;;;;;4897614;29;20052;-64
2022/01/12 01:30:11;;;;;;;14.85;3.03;;;;;;;;;;4897601;29;20064;-64
2022/01/12 01:32:43;;;;;;;20.15;3.38;;;;;;;;;;4896800;29;20052;-63
2022/01/12 01:35:15;;;;;;;16.38;2.80;;;;;;;;;;4899269;29;20056;-64
2022/01/12 01:37:45;;;;;;;18.00;2.75;;;;;;;;;;4936009;29;20062;-64
2022/01/12 01:40:16;;;;;;;15.10;2.97;;;;;;;;;;4951487;29;20058;-63
2022/01/12 01:54:04;;;;;;;23.30;2.85;;;;;;;;;;4963192;28;20062;-63
2022/01/12 01:56:34;;;;;;;15.57;3.13;;;;;;;;;;4935860;29;20059;-64
2022/01/12 01:59:05;;;;;;;18.63;3.17;;;;;;;;;;4897785;29;20405;-63
2022/01/12 02:01:36;;;;;;;18.42;3.10;;;;;;;;;;4875398;29;20049;-63
2022/01/12 02:04:06;;;;;;;22.90;2.65;;;;;;;;;;4843494;29;20057;-63
2022/01/12 02:06:40;;;;;;;17.60;2.85;;;;;;;;;;4857044;29;20422;-64
2022/01/12 02:09:10;;;;;;;20.83;3.33;;;;;;;;;;4811969;29;20501;-63
2022/01/12 02:12:27;;;;;;;18.35;2.97;;;;;;;;;;4857649;29;20057;-63
2022/01/12 02:15:02;;;;;;;21.33;3.03;;;;;;;;;;4857154;29;20494;-63
2022/01/12 02:17:41;;;;;;;13.30;2.90;;;;;;;;;;4872108;29;20461;-63
2022/01/12 02:37:16;;;;;;;14.90;3.50;;;;;;;;;;4916115;29;20083;-63
2022/01/12 02:39:54;;;;;;;26.73;3.42;;;;;;;;;;4911084;29;20213;-63
2022/01/12 02:42:26;;;;;;;19.58;3.17;;;;;;;;;;4911096;29;20065;-63
2022/01/12 02:51:07;;;;;;;11.52;3.15;;;;;;;;;;4916083;29;20048;-63
2022/01/12 02:53:43;;;;;;;13.20;3.05;;;;;;;;;;4916429;29;20420;-63
2022/01/12 02:56:20;;;;;;;22.83;3.55;;;;;;;;;;4900452;29;20400;-63
2022/01/12 02:58:52;;;;;;;21.23;3.65;;;;;;;;;;4882495;29;20065;-63
2022/01/12 03:01:56;;;;;;;22.52;3.55;;;;;;;;;;4896945;29;20048;-64
2022/01/12 03:04:22;;;;;;;17.98;3.42;;;;;;;;;;4944566;29;20503;-63
2022/01/12 03:06:53;;;;;;;16.25;2.90;;;;;;;;;;4935311;29;20055;-63
2022/01/12 03:09:23;;;;;;;26.33;4.47;;;;;;;;;;4935184;29;20059;-64
2022/01/12 03:11:54;;;;;;;17.60;3.25;;;;;;;;;;4935110;29;20059;-63
2022/01/12 03:14:24;;;;;;;18.20;3.40;;;;;;;;;;4918915;29;20400;-63
2022/01/12 03:16:55;;;;;;;24.25;3.65;;;;;;;;;;4922596;29;20052;-63
2022/01/12 03:19:31;;;;;;;21.10;4.25;;;;;;;;;;4908354;29;20498;-63
2022/01/12 03:22:01;;;;;;;10.93;3.17;;;;;;;;;;4919166;29;20055;-63
2022/01/12 03:24:32;;;;;;;18.83;3.33;;;;;;;;;;4934447;29;20055;-63
2022/01/12 03:27:05;;;;;;;28.58;4.28;;;;;;;;;;4934700;29;20059;-63
2022/01/12 03:29:35;;;;;;;;;;;;;;;;;;4923907;28;20062;-63
2022/01/12 03:32:05;;;;;;;20.45;3.25;;;;;;;;;;4940189;28;20361;-63
2022/01/12 03:34:37;;;;;;;13.20;3.42;;;;;;;;;;4973083;28;20063;-64
2022/01/12 03:37:39;;;;;;;11.88;3.47;;;;;;;;;;4973139;28;20042;-63
2022/01/12 03:40:10;;;;;;;22.85;3.85;;;;;;;;;;4991423;28;20058;-63
2022/01/12 03:42:40;;;;;;;19.27;3.25;;;;;;;;;;4988410;28;20054;-63
2022/01/12 03:45:11;;;;;;;17.17;4.07;;;;;;;;;;4972683;28;20058;-63
2022/01/12 03:47:42;;;;;;;17.27;4.15;;;;;;;;;;4956543;28;20430;-64
2022/01/12 03:50:13;;;;;;;18.45;3.60;;;;;;;;;;4972801;28;20503;-63
2022/01/12 03:52:43;;;;;;;22.27;3.97;;;;;;;;;;4972897;28;20066;-63
2022/01/12 03:55:13;;;;;;;17.58;3.53;;;;;;;;;;4999792;28;20058;-63
2022/01/12 03:57:43;;;;;;;32.25;4.50;;;;;;;;;;5031523;28;20060;-63
2022/01/12 04:00:14;;;;;;;15.98;3.60;;;;;;;;;;5011113;28;20052;-63
2022/01/12 04:02:45;;;;;;;23.25;4.40;;;;;;;;;;5011768;28;20050;-63
2022/01/12 04:05:40;;;;;;;18.30;3.83;;;;;;;;;;5011219;28;20050;-64
2022/01/12 04:08:20;;;;;;;15.82;3.72;;;;;;;;;;4966282;28;20049;-64
2022/01/12 04:11:00;;;;;;;20.55;3.40;;;;;;;;;;4987653;28;20518;-63
2022/01/12 04:13:34;;;;;;;21.40;3.92;;;;;;;;;;4948849;28;20047;-63
2022/01/12 04:16:06;;;;;;;17.75;3.53;;;;;;;;;;4895876;29;20052;-63
2022/01/12 04:18:37;;;;;;;14.70;3.33;;;;;;;;;;4911398;29;20545;-63
2022/01/12 04:21:09;;;;;;;13.73;3.30;;;;;;;;;;4914147;29;20416;-63
2022/01/12 04:23:41;;;;;;;13.27;3.70;;;;;;;;;;4917752;29;20052;-63
2022/01/12 04:26:13;;;;;;;14.15;3.83;;;;;;;;;;4917343;29;20509;-63
2022/01/12 04:28:44;;;;;;;;;;;;;;;;;;4895579;29;20071;-63
2022/01/12 04:31:16;;;;;;;13.35;3.90;;;;;;;;;;4876261;29;19923;-64
2022/01/12 04:33:47;;;;;;;11.88;3.15;;;;;;;;;;4876726;29;20079;-63
2022/01/12 04:36:18;;;;;;;12.63;3.70;;;;;;;;;;4876704;29;20068;-63
2022/01/12 04:38:49;;;;;;;12.40;3.97;;;;;;;;;;4876365;29;20528;-63
2022/01/12 04:41:19;;;;;;;8.93;2.92;;;;;;;;;;4876445;29;20053;-63
2022/01/12 04:43:51;;;;;;;11.68;3.50;;;;;;;;;;4857805;29;20053;-63
2022/01/12 04:46:26;;;;;;;12.30;3.83;;;;;;;;;;4812293;29;20174;-63
2022/01/12 04:51:38;;;;;;;10.43;3.30;;;;;;;;;;4854695;29;20521;-63
2022/01/12 04:54:08;;;;;;;16.95;3.47;;;;;;;;;;4869997;29;20132;-63
2022/01/12 04:56:39;;;;;;;12.77;3.33;;;;;;;;;;4857711;29;20057;-63
2022/01/12 04:59:09;;;;;;;22.33;4.50;;;;;;;;;;4872929;29;20112;-64
2022/01/12 05:01:50;;;;;;;17.73;3.90;;;;;;;;;;4857815;29;20065;-63
2022/01/12 05:09:51;;;;;;;14.55;3.45;;;;;;;;;;4861012;29;20058;-63
2022/01/12 05:15:19;;;;;;;22.83;3.53;;;;;;;;;;4891499;29;20052;-63
2022/01/12 05:17:49;;;;;;;13.93;3.67;;;;;;;;;;4860134;29;20045;-63
2022/01/12 05:20:21;;;;;;;15.05;3.50;;;;;;;;;;4875729;29;20057;-64
2022/01/12 05:22:53;;;;;;;11.27;3.53;;;;;;;;;;4876100;29;20060;-63
2022/01/12 05:25:23;;;;;;;17.73;3.92;;;;;;;;;;4875582;29;20448;-63
2022/01/12 05:27:54;;;;;;;16.67;3.22;;;;;;;;;;4875536;29;20425;-63
2022/01/12 05:30:24;;;;;;;15.20;3.63;;;;;;;;;;4860068;29;20049;-63
2022/01/12 05:32:55;;;;;;;15.90;3.80;;;;;;;;;;4912543;29;20060;-63
2022/01/12 05:35:32;;;;;;;11.85;3.25;;;;;;;;;;4897619;29;20064;-63
2022/01/12 05:38:08;;;;;;;15.02;3.25;;;;;;;;;;4848907;29;20421;-63
2022/01/12 05:40:45;;;;;;;11.70;3.47;;;;;;;;;;4863152;29;20048;-63
2022/01/12 05:43:29;;;;;;;16.98;3.42;;;;;;;;;;4875609;29;20071;-63
2022/01/12 05:46:13;;;;;;;16.80;3.80;;;;;;;;;;4830934;29;20049;-63
2022/01/12 05:51:39;;;;;;;19.92;3.75;;;;;;;;;;4885923;29;20044;-63
2022/01/12 05:54:10;;;;;;;8.18;3.30;;;;;;;;;;4893452;29;20069;-63
2022/01/12 05:56:41;;;;;;;13.38;3.28;;;;;;;;;;4931643;29;20051;-63
2022/01/12 05:59:12;;;;;;;11.65;3.17;;;;;;;;;;4931377;29;20063;-64
2022/01/12 06:01:43;;;;;;;11.95;2.88;;;;;;;;;;4931759;29;20052;-63
2022/01/12 06:04:14;;;;;;;14.02;3.28;;;;;;;;;;4928750;29;20064;-63
2022/01/12 06:06:45;;;;;;;13.52;3.20;;;;;;;;;;4876188;29;20435;-64
2022/01/12 06:09:15;;;;;;;10.23;3.00;;;;;;;;;;4875692;29;20510;-63
2022/01/12 06:11:45;;;;;;;13.65;3.33;;;;;;;;;;4875606;29;20628;-64
2022/01/12 06:14:19;;;;;;;11.32;3.50;;;;;;;;;;4875266;29;20057;-64
2022/01/12 06:16:50;;;;;;;14.10;3.38;;;;;;;;;;4893025;29;20049;-63
2022/01/12 06:19:21;;;;;;;14.80;3.42;;;;;;;;;;4896953;29;20056;-63
2022/01/12 06:22:15;;;;;;;16.60;3.35;;;;;;;;;;4932071;29;20134;-63
2022/01/12 06:24:45;;;;;;;13.30;3.40;;;;;;;;;;4916177;29;20064;-63
2022/01/12 06:27:17;;;;;;;16.48;3.78;;;;;;;;;;4951779;28;20054;-63
2022/01/12 06:30:03;;;;;;;15.13;3.40;;;;;;;;;;5011309;28;20056;-63
2022/01/12 06:32:34;;;;;;;12.07;3.33;;;;;;;;;;5012788;28;20449;-63
2022/01/12 06:35:04;;;;;;;10.90;3.13;;;;;;;;;;5029096;28;20052;-63
2022/01/12 06:37:34;;;;;;;7.68;2.60;;;;;;;;;;5029057;28;20421;-63
2022/01/12 06:40:07;;;;;;;8.88;2.58;;;;;;;;;;4973862;28;20061;-63
2022/01/12 06:42:37;;;;;;;9.15;2.50;;;;;;;;;;4912497;29;20060;-63
2022/01/12 06:45:10;;;;;;;9.80;2.80;;;;;;;;;;4924472;29;20048;-63
2022/01/12 06:47:45;;;;;;;10.52;2.53;;;;;;;;;;4931745;29;20416;-63
2022/01/12 06:50:17;;;;;;;;;;;;;;;;;;4916802;29;20048;-63
2022/01/12 06:52:48;;;;;;;9.70;2.92;;;;;;;;;;4931777;29;19923;-63
2022/01/12 06:55:18;;;;;;;14.95;2.95;;;;;;;;;;4899983;29;20055;-63
2022/01/12 06:57:48;;;;;;;8.30;2.53;;;;;;;;;;4847362;29;20048;-63
2022/01/12 07:00:19;;;;;;;10.50;2.75;;;;;;;;;;4875013;29;20422;-63
2022/01/12 07:02:49;;;;;;;10.55;2.72;;;;;;;;;;4856187;29;20405;-63
2022/01/12 07:05:21;;;;;;;16.83;2.78;;;;;;;;;;4875061;29;20053;-64
2022/01/12 07:07:51;;;;;;;12.00;3.50;;;;;;;;;;4862804;29;20053;-63
2022/01/12 07:10:31;;;;;;;17.15;3.83;;;;;;;;;;4845479;29;20057;-63
2022/01/12 07:13:13;;;;;;;16.05;3.83;;;;;;;;;;4854966;29;20577;-64
2022/01/12 07:15:44;;;;;;;21.02;3.40;;;;;;;;;;4840712;29;20597;-63
2022/01/12 07:18:19;;;;;;;11.77;3.90;;;;;;;;;;4827620;29;20077;-63
2022/01/12 07:20:49;;;;;;;15.18;3.90;;;;;;;;;;4827723;29;20054;-63
2022/01/12 07:23:20;;;;;;;10.73;3.30;;;;;;;;;;4861806;29;20098;-65
2022/01/12 07:25:51;;;;;;;17.63;3.58;;;;;;;;;;4853391;29;20062;-63
2022/01/12 07:28:21;;;;;;;16.88;3.72;;;;;;;;;;4889901;29;20168;-63
2022/01/12 07:30:52;;;;;;;13.15;4.55;;;;;;;;;;4896628;29;20056;-63
2022/01/12 07:33:25;;;;;;;16.15;3.42;;;;;;;;;;4896458;29;20068;-63
2022/01/12 07:35:55;;;;;;;15.93;3.42;;;;;;;;;;4862243;29;20049;-64
2022/01/12 07:38:25;;;;;;;11.07;3.55;;;;;;;;;;4864479;29;20529;-63
2022/01/12 07:40:56;;;;;;;20.52;4.35;;;;;;;;;;4879850;29;20080;-63
2022/01/12 07:43:26;;;;;;;17.60;4.55;;;;;;;;;;4871553;29;20057;-63
2022/01/12 07:45:58;;;;;;;21.55;4.53;;;;;;;;;;4877712;29;20049;-63
2022/01/12 07:48:28;;;;;;;17.83;4.80;;;;;;;;;;4891055;29;20056;-63
2022/01/12 07:50:58;;;;;;;12.25;3.72;;;;;;;;;;4936258;29;20066;-63
2022/01/12 07:53:28;;;;;;;13.00;3.75;;;;;;;;;;4953226;29;20061;-63
2022/01/12 07:55:59;;;;;;;13.60;3.97;;;;;;;;;;4953179;29;20047;-63
2022/01/12 07:58:30;;;;;;;13.90;4.13;;;;;;;;;;4943538;29;20412;-63
2022/01/12 08:01:00;;;;;;;18.38;4.80;;;;;;;;;;4895834;29;20049;-64
2022/01/12 08:03:31;;;;;;;13.20;4.00;;;;;;;;;;4896271;29;20449;-63
2022/01/12 08:06:01;;;;;;;16.48;4.10;;;;;;;;;;4889903;29;20063;-63
2022/01/12 08:08:33;;;;;;;11.82;3.42;;;;;;;;;;4914877;29;20412;-63
2022/01/12 08:11:03;;;;;;;11.85;3.70;;;;;;;;;;4883459;29;20064;-63
2022/01/12 08:13:33;;;;;;;14.40;3.65;;;;;;;;;;4915149;29;20068;-64
2022/01/12 08:16:04;;;;;;;14.25;3.60;;;;;;;;;;4943315;28;20055;-63
2022/01/12 08:18:35;;;;;;;14.95;3.88;;;;;;;;;;4992554;28;20093;-64
2022/01/12 08:21:06;;;;;;;12.68;4.25;;;;;;;;;;5011244;28;20057;-63
2022/01/12 08:23:37;;;;;;;12.13;3.33;;;;;;;;;;5011440;28;20166;-63
2022/01/12 08:26:08;;;;;;;13.48;3.40;;;;;;;;;;5010895;28;20054;-64
2022/01/12 08:28:38;;;;;;;10.95;3.30;;;;;;;;;;5010954;28;20057;-63
2022/01/12 08:31:09;;;;;;;16.35;3.65;;;;;;;;;;4981696;28;20411;-63
2022/01/12 08:33:39;;;;;;;12.68;3.13;;;;;;;;;;5022214;28;20673;-63
2022/01/12 08:36:09;;;;;;;16.70;3.45;;;;;;;;;;5041174;28;20114;-63
2022/01/12 08:38:39;;;;;;;10.95;3.25;;;;;;;;;;5093246;28;20048;-63
2022/01/12 08:41:10;;;;;;;16.83;4.75;;;;;;;;;;5092968;28;20048;-63
2022/01/12 08:43:40;;;;;;;10.93;3.50;;;;;;;;;;5093001;28;20048;-63
2022/01/12 08:46:11;;;;;;;11.35;4.88;;;;;;;;;;5057313;28;20660;-63
2022/01/12 08:48:42;;;;;;;12.15;4.90;;;;;;;;;;5074108;28;20384;-63
2022/01/12 08:51:12;;;;;;;14.82;5.65;;;;;;;;;;5050006;28;20090;-63
2022/01/12 08:53:42;;;;;;;17.77;6.80;;;;;;;;;;5050317;28;20060;-63
2022/01/12 08:56:12;;;;;;;12.35;6.10;;;;;;;;;;5050329;28;20057;-63
2022/01/12 08:58:42;;;;;;;16.23;7.72;;;;;;;;;;5017390;28;20057;-63
2022/01/12 09:01:13;;;;;;;16.23;6.03;;;;;;;;;;5017607;28;20049;-63
2022/01/12 09:03:44;;;;;;;10.82;4.85;;;;;;;;;;5050304;28;20525;-63
2022/01/12 09:06:15;;;;;;;14.23;5.25;;;;;;;;;;5017045;28;20080;-63
2022/01/12 09:08:45;;;;;;;18.00;5.75;;;;;;;;;;5049999;28;20100;-63
2022/01/12 09:11:18;;;;;;;13.23;4.20;;;;;;;;;;5050086;28;20048;-63
2022/01/12 09:13:49;;;;;;;16.20;4.53;;;;;;;;;;5000860;28;20411;-63
2022/01/12 09:16:20;;;;;;;19.17;4.65;;;;;;;;;;5050099;28;20060;-63
2022/01/12 09:18:50;;;;;;;16.67;4.82;;;;;;;;;;5000988;28;20061;-63
2022/01/12 09:21:20;;;;;;;17.55;4.60;;;;;;;;;;5033444;28;20061;-63
2022/01/12 09:23:51;;;;;;;22.65;4.15;;;;;;;;;;5029983;28;20064;-64
2022/01/12 09:26:21;;;;;;;13.80;3.97;;;;;;;;;;4996753;28;20053;-63
2022/01/12 09:28:52;;;;;;;20.00;4.38;;;;;;;;;;5039155;28;20061;-63
2022/01/12 09:31:23;;;;;;;19.20;4.40;;;;;;;;;;5032737;28;20196;-63
2022/01/12 09:33:54;;;;;;;18.38;3.72;;;;;;;;;;5016798;28;20060;-63
2022/01/12 09:36:24;;;;;;;20.00;3.63;;;;;;;;;;4980321;28;20060;-63
2022/01/12 09:38:55;;;;;;;18.55;3.90;;;;;;;;;;5029722;28;20517;-63
2022/01/12 09:41:27;;;;;;;13.35;5.35;;;;;;;;;;5029714;28;20069;-63
2022/01/12 09:43:58;;;;;;;16.30;5.25;;;;;;;;;;4996807;28;20049;-63
2022/01/12 09:46:28;;;;;;;13.52;4.32;;;;;;;;;;5029702;28;20045;-63
2022/01/12 09:49:01;;;;;;;14.63;3.35;;;;;;;;;;5029478;28;20061;-63
2022/01/12 09:51:31;;;;;;;20.92;4.45;;;;;;;;;;5029523;28;20048;-63
2022/01/12 09:54:01;;;;;;;21.65;4.65;;;;;;;;;;4997414;28;20398;-63
2022/01/12 09:56:32;;;;;;;13.73;4.03;;;;;;;;;;5029580;28;20052;-63
2022/01/12 09:59:08;;;;;;;11.63;3.55;;;;;;;;;;4989870;28;20061;-63
2022/01/12 10:01:44;;;;;;;22.70;3.92;;;;;;;;;;4969903;28;20453;-62
2022/01/12 10:04:20;;;;;;;12.93;4.45;;;;;;;;;;5009842;28;20076;-63
2022/01/12 10:06:59;;;;;;;16.63;4.32;;;;;;;;;;4977518;28;20057;-63
2022/01/12 10:09:35;;;;;;;17.75;3.75;;;;;;;;;;5009679;28;20064;-63
2022/01/12 10:12:14;;;;;;;18.23;3.72;;;;;;;;;;5009292;28;20065;-62
2022/01/12 10:15:01;;;;;;;12.05;3.13;;;;;;;;;;4995050;28;20054;-63
2022/01/12 10:17:38;;;;;;;15.18;3.45;;;;;;;;;;5014203;28;20057;-63
2022/01/12 10:20:12;;;;;;;14.00;3.15;;;;;;;;;;5029310;28;20394;-64
2022/01/12 10:23:07;;;;;;;8.15;2.97;;;;;;;;;;5029269;28;20045;-63
2022/01/12 10:25:41;;;;;;;13.88;3.15;;;;;;;;;;4980739;28;20072;-63
2022/01/12 10:28:16;;;;;;;10.70;3.17;;;;;;;;;;5028846;28;20421;-63
2022/01/12 10:31:01;;;;;;;14.25;3.00;;;;;;;;;;5073231;28;20059;-62
2022/01/12 10:33:36;;;;;;;15.77;3.20;;;;;;;;;;5012957;28;20042;-63
2022/01/12 10:36:06;;;;;;;9.77;2.72;;;;;;;;;;5029189;28;20054;-63
2022/01/12 10:38:37;;;;;;;11.85;2.97;;;;;;;;;;5029325;28;20090;-63
2022/01/12 10:41:07;;;;;;;12.80;2.75;;;;;;;;;;5032613;28;20049;-63
2022/01/12 10:43:44;;;;;;;11.23;2.97;;;;;;;;;;5033030;28;20054;-63
2022/01/12 10:46:18;;;;;;;9.52;3.55;;;;;;;;;;5032847;28;20065;-63
2022/01/12 10:48:52;;;;;;;12.40;3.33;;;;;;;;;;5032920;28;20056;-63
2022/01/12 10:51:30;;;;;;;13.18;3.13;;;;;;;;;;5016382;28;20050;-63
2022/01/12 10:54:03;;;;;;;9.90;3.53;;;;;;;;;;4958414;28;20051;-63
2022/01/12 10:56:33;;;;;;;10.68;3.13;;;;;;;;;;4958146;28;20196;-63
2022/01/12 10:59:04;;;;;;;17.02;4.25;;;;;;;;;;4957848;28;20129;-63
2022/01/12 11:01:35;;;;;;;15.93;3.88;;;;;;;;;;4942709;28;20051;-64
2022/01/12 11:04:06;;;;;;;13.60;3.28;;;;;;;;;;4958229;28;20055;-63
2022/01/12 11:06:37;;;;;;;13.82;4.10;;;;;;;;;;4973835;28;20102;-63
2022/01/12 11:09:08;;;;;;;8.45;2.97;;;;;;;;;;4973937;28;20059;-63
2022/01/12 11:11:38;;;;;;;8.30;2.72;;;;;;;;;;4998622;28;20060;-64
2022/01/12 11:14:09;;;;;;;7.53;2.15;;;;;;;;;;5032352;28;20121;-63
2022/01/12 11:16:40;;;;;;;8.55;1.98;;;;;;;;;;5032433;28;20060;-64
2022/01/12 11:19:13;;;;;;;11.93;2.53;;;;;;;;;;4983288;28;20072;-63
2022/01/12 11:21:57;;;;;;;11.50;3.63;;;;;;;;;;5032391;28;20076;-64
2022/01/12 11:24:28;;;;;;;10.00;3.53;;;;;;;;;;4984918;28;20563;-64
2022/01/12 11:27:03;;;;;;;19.30;4.95;;;;;;;;;;5032127;28;20052;-63
2022/01/12 11:29:34;;;;;;;27.83;4.97;;;;;;;;;;5031745;28;20572;-64
2022/01/12 11:32:13;;;;;;;11.35;3.70;;;;;;;;;;5059769;28;20419;-65
2022/01/12 11:34:43;;;;;;;12.88;3.05;;;;;;;;;;5054902;28;20057;-64
2022/01/12 11:37:16;;;;;;;10.55;3.47;;;;;;;;;;5006290;28;20059;-65
2022/01/12 11:39:47;;;;;;;14.35;2.75;;;;;;;;;;4998907;28;20042;-65
2022/01/12 11:42:18;;;;;;;15.50;3.35;;;;;;;;;;5015563;28;20072;-65
2022/01/12 11:44:49;;;;;;;5.78;2.63;;;;;;;;;;5031770;28;20057;-65
2022/01/12 11:47:22;;;;;;;8.60;2.45;;;;;;;;;;5031892;28;20057;-65
2022/01/12 11:49:53;;;;;;;8.48;2.38;;;;;;;;;;5046220;28;20060;-65
2022/01/12 11:52:29;;;;;;;5.45;3.05;;;;;;;;;;5050674;28;20053;-64
2022/01/12 11:55:18;;;;;;;7.72;2.30;;;;;;;;;;4972485;28;20064;-64
2022/01/12 11:57:52;;;;;;;3.67;1.92;;;;;;;;;;5035395;28;20053;-64
2022/01/12 12:00:29;;;;;;;7.07;1.90;;;;;;;;;;5035489;28;20052;-64
2022/01/12 12:03:01;;;;;;;2.83;1.52;;;;;;;;;;5051507;28;20045;-64
2022/01/12 12:05:34;;;;;;;8.90;1.80;;;;;;;;;;4969224;28;20556;-65
2022/01/12 12:08:05;;;;;;;6.68;1.77;;;;;;;;;;4986169;28;20656;-65
2022/01/12 12:10:38;;;;;;;4.38;1.42;;;;;;;;;;5050860;28;20068;-62
2022/01/12 12:13:11;;;;;;;8.07;1.90;;;;;;;;;;5051061;28;20140;-62
2022/01/12 12:15:43;;;;;;;11.02;1.80;;;;;;;;;;5051043;28;20428;-61
2022/01/12 12:18:18;;;;;;;4.45;1.88;;;;;;;;;;5071250;28;20060;-62
2022/01/12 12:20:48;;;;;;;9.43;1.73;;;;;;;;;;5075923;28;20421;-62
2022/01/12 12:23:22;;;;;;;7.43;1.63;;;;;;;;;;5010705;28;20050;-62
2022/01/12 12:25:53;;;;;;;8.40;1.50;;;;;;;;;;5011224;28;20064;-64
2022/01/12 12:28:24;;;;;;;3.78;1.42;;;;;;;;;;5010713;28;20054;-62
2022/01/12 12:30:55;;;;;;;3.88;2.30;;;;;;;;;;4963125;28;20072;-62
2022/01/12 12:33:25;;;;;;;8.68;2.08;;;;;;;;;;4994962;28;20054;-62
2022/01/12 12:35:55;;;;;;;6.07;1.58;;;;;;;;;;5011457;28;20182;-63
2022/01/12 12:38:25;;;;;;;2.65;1.42;;;;;;;;;;4978199;28;20058;-61
2022/01/12 12:40:57;;;;;;;7.85;1.52;;;;;;;;;;5010978;28;20062;-63
2022/01/12 12:43:34;;;;;;;4.25;1.45;;;;;;;;;;5010640;28;20042;-62
2022/01/12 12:46:14;;;;;;;4.13;2.03;;;;;;;;;;5010903;28;20050;-61
2022/01/12 12:48:45;;;;;;;4.75;2.08;;;;;;;;;;4948155;28;20073;-61
2022/01/12 12:51:17;;;;;;;6.97;1.92;;;;;;;;;;5010553;28;20050;-62
2022/01/12 12:53:52;;;;;;;4.60;2.10;;;;;;;;;;5010318;28;20050;-62
2022/01/12 12:56:27;;;;;;;6.80;2.25;;;;;;;;;;5010456;28;20070;-61
2022/01/12 12:58:58;;;;;;;5.80;1.63;;;;;;;;;;4993752;28;20062;-61
2022/01/12 13:01:28;;;;;;;4.72;1.73;;;;;;;;;;4987275;28;20411;-61
2022/01/12 13:04:00;;;;;;;6.57;1.70;;;;;;;;;;5049661;28;20048;-61
2022/01/12 13:06:34;;;;;;;8.07;1.80;;;;;;;;;;4959279;28;20054;-62
2022/01/12 13:09:12;;;;;;;7.30;2.05;;;;;;;;;;4990800;28;20065;-61
2022/01/12 13:11:44;;;;;;;;;;;;;;;;;;4929072;28;20498;-61
2022/01/12 13:14:17;;;;;;;7.03;1.48;;;;;;;;;;4974258;28;20401;-61
2022/01/12 13:16:50;;;;;;;5.13;1.63;;;;;;;;;;4990209;28;20058;-61
2022/01/12 13:22:38;;;;;;;7.72;2.10;;;;;;;;;;4951666;28;20063;-62
2022/01/12 13:25:11;;;;;;;6.30;1.58;;;;;;;;;;4932313;29;20051;-62
2022/01/12 13:27:43;;;;;;;5.00;2.38;;;;;;;;;;4885400;29;20055;-61
2022/01/12 13:30:29;;;;;;;5.57;1.42;;;;;;;;;;4932390;29;20059;-62
2022/01/12 13:33:02;;;;;;;7.45;1.48;;;;;;;;;;4932434;29;20051;-61
2022/01/12 13:35:36;;;;;;;6.40;1.58;;;;;;;;;;4932372;29;20054;-61
2022/01/12 13:38:07;;;;;;;7.97;1.92;;;;;;;;;;4932341;29;20416;-61
2022/01/12 13:40:45;;;;;;;9.30;1.90;;;;;;;;;;4915185;29;20052;-61
2022/01/12 13:43:20;;;;;;;8.05;1.90;;;;;;;;;;4918095;29;20059;-61
2022/01/12 13:46:00;;;;;;;4.38;1.80;;;;;;;;;;4966433;28;20059;-61
2022/01/12 13:49:05;;;;;;;5.13;1.67;;;;;;;;;;4951033;29;20059;-61
2022/01/12 13:51:39;;;;;;;5.13;1.80;;;;;;;;;;4970526;28;20051;-61
2022/01/12 13:54:15;;;;;;;7.43;1.63;;;;;;;;;;4954583;28;20057;-61
2022/01/12 13:56:51;;;;;;;5.90;1.58;;;;;;;;;;4970691;28;20063;-62
2022/01/12 13:59:25;;;;;;;5.50;1.63;;;;;;;;;;4979356;28;20093;-62
2022/01/12 14:01:58;;;;;;;5.10;1.25;;;;;;;;;;5011378;28;20062;-62
2022/01/12 14:04:41;;;;;;;6.10;1.65;;;;;;;;;;4979711;28;20504;-62
2022/01/12 14:07:22;;;;;;;7.70;1.85;;;;;;;;;;5029401;28;20049;-63
2022/01/12 14:09:55;;;;;;;3.97;1.85;;;;;;;;;;5013308;28;20155;-62
2022/01/12 14:12:27;;;;;;;3.92;1.60;;;;;;;;;;5012808;28;20448;-62
2022/01/12 14:15:22;;;;;;;5.22;2.08;;;;;;;;;;5030396;28;20053;-63
2022/01/12 14:17:53;;;;;;;2.28;1.13;;;;;;;;;;4974370;28;20054;-62
2022/01/12 14:20:36;;;;;;;5.63;1.45;;;;;;;;;;4979858;28;20054;-62
2022/01/12 14:23:08;;;;;;;4.85;1.35;;;;;;;;;;4993828;28;20051;-62
2022/01/12 14:25:48;;;;;;;5.05;1.42;;;;;;;;;;4993995;28;20046;-62
2022/01/12 14:28:28;;;;;;;3.28;1.42;;;;;;;;;;4979485;28;20073;-62
2022/01/12 14:30:59;;;;;;;2.80;1.20;;;;;;;;;;4961546;28;20053;-62
2022/01/12 14:33:32;;;;;;;3.17;1.48;;;;;;;;;;4979704;28;20126;-62
2022/01/12 14:36:02;;;;;;;3.85;1.15;;;;;;;;;;5009642;28;20058;-62
2022/01/12 14:38:32;;;;;;;2.83;1.15;;;;;;;;;;4963821;28;20064;-62
2022/01/12 14:41:03;;;;;;;3.55;1.35;;;;;;;;;;5012837;28;20050;-63
2022/01/12 14:43:33;;;;;;;7.70;1.55;;;;;;;;;;5012063;28;20413;-63
2022/01/12 14:46:04;;;;;;;2.85;1.05;;;;;;;;;;5012919;28;20050;-62
2022/01/12 14:48:35;;;;;;;5.40;1.73;;;;;;;;;;5013110;28;20058;-62
2022/01/12 14:51:06;;;;;;;4.25;1.40;;;;;;;;;;4964090;28;20050;-63
2022/01/12 14:53:36;;;;;;;2.85;1.40;;;;;;;;;;5012275;28;20513;-60
2022/01/12 14:56:07;;;;;;;4.93;1.27;;;;;;;;;;5030255;28;20532;-61
2022/01/12 14:58:37;;;;;;;2.00;1.38;;;;;;;;;;5068374;28;20044;-60
2022/01/12 15:01:08;;;;;;;9.57;1.42;;;;;;;;;;5084355;28;20045;-60
2022/01/12 15:03:39;;;;;;;6.53;1.50;;;;;;;;;;5082496;28;20051;-63
2022/01/12 15:06:09;;;;;;;5.43;1.88;;;;;;;;;;5034889;28;20053;-62
2022/01/12 15:08:40;;;;;;;3.72;1.42;;;;;;;;;;5054830;28;20056;-63
2022/01/12 15:11:11;;;;;;;3.40;1.13;;;;;;;;;;5052242;28;20057;-65
2022/01/12 15:13:54;;;;;;;;;;;;;;;;;;5019801;28;20077;-66
2022/01/12 15:16:25;;;;;;;3.88;1.13;;;;;;;;;;5052135;28;19928;-64
2022/01/12 15:18:55;;;;;;;3.50;1.17;;;;;;;;;;5019090;28;20068;-65
2022/01/12 15:21:26;;;;;;;2.30;1.10;;;;;;;;;;5051896;28;20076;-65
2022/01/12 15:23:57;;;;;;;2.70;0.90;;;;;;;;;;5052191;28;20056;-66
2022/01/12 15:26:27;;;;;;;3.28;1.02;;;;;;;;;;5001284;28;20057;-65
2022/01/12 15:28:57;;;;;;;2.95;1.20;;;;;;;;;;5051769;28;20056;-64
2022/01/12 15:31:27;;;;;;;3.28;1.17;;;;;;;;;;5051832;28;20057;-65
2022/01/12 15:33:58;;;;;;;4.22;1.15;;;;;;;;;;5051823;28;20087;-65
2022/01/12 15:36:28;;;;;;;7.25;1.25;;;;;;;;;;5051767;28;20045;-64
2022/01/12 15:38:59;;;;;;;2.03;1.10;;;;;;;;;;5006460;28;20052;-64
2022/01/12 15:41:29;;;;;;;2.33;1.20;;;;;;;;;;5073988;28;20040;-64
2022/01/12 15:43:59;;;;;;;3.28;1.17;;;;;;;;;;5073809;28;20531;-65
2022/01/12 15:46:29;;;;;;;6.55;1.05;;;;;;;;;;5073796;28;20044;-64
2022/01/12 15:49:00;;;;;;;4.07;0.95;;;;;;;;;;5039000;28;20045;-66
2022/01/12 15:51:30;;;;;;;2.45;1.23;;;;;;;;;;5073776;28;20051;-64
2022/01/12 15:54:00;;;;;;;4.72;1.10;;;;;;;;;;5021921;28;20492;-67
2022/01/12 15:56:30;;;;;;;2.08;1.10;;;;;;;;;;5022073;28;20052;-65
2022/01/12 15:59:00;;;;;;;4.95;1.02;;;;;;;;;;5054721;28;20053;-65
2022/01/12 16:01:31;;;;;;;3.78;1.35;;;;;;;;;;5073806;28;20488;-64
2022/01/12 16:04:02;;;;;;;3.88;1.25;;;;;;;;;;5073653;28;20052;-63
2022/01/12 16:06:33;;;;;;;3.60;1.20;;;;;;;;;;5051294;28;20500;-65
2022/01/12 16:09:04;;;;;;;2.75;0.98;;;;;;;;;;5050927;28;20065;-63
2022/01/12 16:11:37;;;;;;;3.22;1.20;;;;;;;;;;5050885;28;20500;-65
2022/01/12 16:14:28;;;;;;;5.78;1.10;;;;;;;;;;5051206;28;20552;-64
2022/01/12 16:17:03;;;;;;;8.10;1.33;;;;;;;;;;5017924;28;20053;-67
2022/01/12 16:19:41;;;;;;;2.22;1.27;;;;;;;;;;5034638;28;20068;-65